sensor_id;sensor_type;location;lat;lon;timestamp;temperature;humidity
83466;DHT22;73393;51.946;20.140;2024-02-14T00:02:17;5.20;79.80
83466;DHT22;73393;51.946;20.140;2024-02-14T00:04:42;5.10;79.80
83466;DHT22;73393;51.946;20.140;2024-02-14T00:07:08;5.10;80.20
83466;DHT22;73393;51.946;20.140;2024-02-14T00:09:34;5.20;80.30
83466;DHT22;73393;51.946;20.140;2024-02-14T00:12:00;5.20;80.10
83466;DHT22;73393;51.946;20.140;2024-02-14T00:14:25;5.20;80.20
83466;DHT22;73393;51.946;20.140;2024-02-14T00:16:51;5.20;80.00
83466;DHT22;73393;51.946;20.140;2024-02-14T00:19:16;5.30;79.80
83466;DHT22;73393;51.946;20.140;2024-02-14T00:21:42;5.30;79.40
83466;DHT22;73393;51.946;20.140;2024-02-14T00:24:08;5.30;79.60
83466;DHT22;73393;51.946;20.140;2024-02-14T00:26:34;5.20;79.70
83466;DHT22;73393;51.946;20.140;2024-02-14T00:29:00;5.20;80.40
83466;DHT22;73393;51.946;20.140;2024-02-14T00:31:25;5.30;80.20
83466;DHT22;73393;51.946;20.140;2024-02-14T00:33:51;5.30;79.60
83466;DHT22;73393;51.946;20.140;2024-02-14T00:36:16;5.20;79.60
83466;DHT22;73393;51.946;20.140;2024-02-14T00:38:43;5.00;80.00
83466;DHT22;73393;51.946;20.140;2024-02-14T00:41:10;5.10;80.20
83466;DHT22;73393;51.946;20.140;2024-02-14T00:43:36;5.10;80.70
83466;DHT22;73393;51.946;20.140;2024-02-14T00:46:02;5.10;80.40
83466;DHT22;73393;51.946;20.140;2024-02-14T00:48:27;5.10;80.80
83466;DHT22;73393;51.946;20.140;2024-02-14T00:50:53;5.10;80.70
83466;DHT22;73393;51.946;20.140;2024-02-14T00:53:19;5.10;80.00
83466;DHT22;73393;51.946;20.140;2024-02-14T00:55:46;5.10;80.20
83466;DHT22;73393;51.946;20.140;2024-02-14T00:58:11;5.10;80.10
83466;DHT22;73393;51.946;20.140;2024-02-14T01:00:37;5.10;80.30
83466;DHT22;73393;51.946;20.140;2024-02-14T01:03:02;5.10;80.60
83466;DHT22;73393;51.946;20.140;2024-02-14T01:05:28;5.10;80.70
83466;DHT22;73393;51.946;20.140;2024-02-14T01:07:54;5.10;80.70
83466;DHT22;73393;51.946;20.140;2024-02-14T01:10:20;5.20;80.90
83466;DHT22;73393;51.946;20.140;2024-02-14T01:12:46;5.20;80.60
83466;DHT22;73393;51.946;20.140;2024-02-14T01:15:11;5.10;80.00
83466;DHT22;73393;51.946;20.140;2024-02-14T01:17:37;5.10;80.90
83466;DHT22;73393;51.946;20.140;2024-02-14T01:20:05;5.00;80.50
83466;DHT22;73393;51.946;20.140;2024-02-14T01:22:32;5.00;80.90
83466;DHT22;73393;51.946;20.140;2024-02-14T01:24:57;5.10;80.70
83466;DHT22;73393;51.946;20.140;2024-02-14T01:27:24;5.00;80.30
83466;DHT22;73393;51.946;20.140;2024-02-14T01:29:50;4.80;80.30
83466;DHT22;73393;51.946;20.140;2024-02-14T01:32:15;4.80;81.50
83466;DHT22;73393;51.946;20.140;2024-02-14T01:34:41;4.70;81.60
83466;DHT22;73393;51.946;20.140;2024-02-14T01:37:09;4.70;81.60
83466;DHT22;73393;51.946;20.140;2024-02-14T01:39:37;4.60;81.40
83466;DHT22;73393;51.946;20.140;2024-02-14T01:42:03;4.60;81.40
83466;DHT22;73393;51.946;20.140;2024-02-14T01:44:33;4.60;81.80
83466;DHT22;73393;51.946;20.140;2024-02-14T01:47:00;4.50;82.00
83466;DHT22;73393;51.946;20.140;2024-02-14T01:49:26;4.40;82.40
83466;DHT22;73393;51.946;20.140;2024-02-14T01:51:55;4.20;82.80
83466;DHT22;73393;51.946;20.140;2024-02-14T01:54:20;4.20;83.20
83466;DHT22;73393;51.946;20.140;2024-02-14T01:56:47;3.90;84.30
83466;DHT22;73393;51.946;20.140;2024-02-14T01:59:13;3.90;84.90
83466;DHT22;73393;51.946;20.140;2024-02-14T02:01:41;4.00;84.60
83466;DHT22;73393;51.946;20.140;2024-02-14T02:04:06;3.90;83.10
83466;DHT22;73393;51.946;20.140;2024-02-14T02:06:33;3.60;83.40
83466;DHT22;73393;51.946;20.140;2024-02-14T02:08:59;3.40;84.20
83466;DHT22;73393;51.946;20.140;2024-02-14T02:11:25;3.20;84.80
83466;DHT22;73393;51.946;20.140;2024-02-14T02:13:52;3.00;85.70
83466;DHT22;73393;51.946;20.140;2024-02-14T02:16:17;2.80;86.30
83466;DHT22;73393;51.946;20.140;2024-02-14T02:18:45;2.70;86.90
83466;DHT22;73393;51.946;20.140;2024-02-14T02:21:11;2.60;86.50
83466;DHT22;73393;51.946;20.140;2024-02-14T02:23:38;2.50;86.30
83466;DHT22;73393;51.946;20.140;2024-02-14T02:26:06;2.40;85.60
83466;DHT22;73393;51.946;20.140;2024-02-14T02:28:31;2.20;86.30
83466;DHT22;73393;51.946;20.140;2024-02-14T02:30:57;2.10;87.00
83466;DHT22;73393;51.946;20.140;2024-02-14T02:33:22;2.10;87.10
83466;DHT22;73393;51.946;20.140;2024-02-14T02:35:48;2.00;87.70
83466;DHT22;73393;51.946;20.140;2024-02-14T02:38:18;1.90;88.30
83466;DHT22;73393;51.946;20.140;2024-02-14T02:40:45;1.90;88.60
83466;DHT22;73393;51.946;20.140;2024-02-14T02:43:10;1.80;88.20
83466;DHT22;73393;51.946;20.140;2024-02-14T02:45:36;1.70;88.50
83466;DHT22;73393;51.946;20.140;2024-02-14T02:48:02;1.60;88.70
83466;DHT22;73393;51.946;20.140;2024-02-14T02:50:28;1.50;89.20
83466;DHT22;73393;51.946;20.140;2024-02-14T02:52:54;1.50;89.90
83466;DHT22;73393;51.946;20.140;2024-02-14T02:55:20;1.50;89.90
83466;DHT22;73393;51.946;20.140;2024-02-14T02:57:45;1.40;89.50
83466;DHT22;73393;51.946;20.140;2024-02-14T03:00:12;1.30;89.30
83466;DHT22;73393;51.946;20.140;2024-02-14T03:02:39;1.30;88.80
83466;DHT22;73393;51.946;20.140;2024-02-14T03:05:10;1.20;88.90
83466;DHT22;73393;51.946;20.140;2024-02-14T03:07:38;1.10;89.80
83466;DHT22;73393;51.946;20.140;2024-02-14T03:10:05;1.00;91.20
83466;DHT22;73393;51.946;20.140;2024-02-14T03:12:30;1.00;91.30
83466;DHT22;73393;51.946;20.140;2024-02-14T03:14:57;0.90;91.10
83466;DHT22;73393;51.946;20.140;2024-02-14T03:17:26;0.90;91.90
83466;DHT22;73393;51.946;20.140;2024-02-14T03:19:54;0.80;92.40
83466;DHT22;73393;51.946;20.140;2024-02-14T03:22:21;0.80;93.90
83466;DHT22;73393;51.946;20.140;2024-02-14T03:24:48;0.70;93.60
83466;DHT22;73393;51.946;20.140;2024-02-14T03:27:13;0.80;93.50
83466;DHT22;73393;51.946;20.140;2024-02-14T03:29:39;0.70;93.20
83466;DHT22;73393;51.946;20.140;2024-02-14T03:32:05;0.60;93.50
83466;DHT22;73393;51.946;20.140;2024-02-14T03:34:31;0.60;93.30
83466;DHT22;73393;51.946;20.140;2024-02-14T03:36:59;0.60;92.30
83466;DHT22;73393;51.946;20.140;2024-02-14T03:39:26;0.60;92.30
83466;DHT22;73393;51.946;20.140;2024-02-14T03:41:52;0.50;92.10
83466;DHT22;73393;51.946;20.140;2024-02-14T03:44:19;0.40;92.50
83466;DHT22;73393;51.946;20.140;2024-02-14T03:46:45;0.30;93.00
83466;DHT22;73393;51.946;20.140;2024-02-14T03:49:13;0.30;93.60
83466;DHT22;73393;51.946;20.140;2024-02-14T03:51:38;0.30;93.70
83466;DHT22;73393;51.946;20.140;2024-02-14T03:54:04;0.20;93.20
83466;DHT22;73393;51.946;20.140;2024-02-14T03:56:30;0.20;93.30
83466;DHT22;73393;51.946;20.140;2024-02-14T03:58:59;0.20;93.40
83466;DHT22;73393;51.946;20.140;2024-02-14T04:01:24;0.10;93.80
83466;DHT22;73393;51.946;20.140;2024-02-14T04:03:50;0.10;94.10
83466;DHT22;73393;51.946;20.140;2024-02-14T04:06:16;0.10;94.00
83466;DHT22;73393;51.946;20.140;2024-02-14T04:08:43;0.10;94.00
83466;DHT22;73393;51.946;20.140;2024-02-14T04:11:09;0.00;94.20
83466;DHT22;73393;51.946;20.140;2024-02-14T04:13:35;0.00;94.50
83466;DHT22;73393;51.946;20.140;2024-02-14T04:16:00;0.00;94.50
83466;DHT22;73393;51.946;20.140;2024-02-14T04:18:26;0.00;94.10
83466;DHT22;73393;51.946;20.140;2024-02-14T04:20:51;0.00;93.80
83466;DHT22;73393;51.946;20.140;2024-02-14T04:23:17;0.00;93.40
83466;DHT22;73393;51.946;20.140;2024-02-14T04:25:42;0.00;93.30
83466;DHT22;73393;51.946;20.140;2024-02-14T04:28:08;0.00;93.70
83466;DHT22;73393;51.946;20.140;2024-02-14T04:30:37;0.00;94.30
83466;DHT22;73393;51.946;20.140;2024-02-14T04:33:04;-0.10;94.20
83466;DHT22;73393;51.946;20.140;2024-02-14T04:35:30;0.00;94.10
83466;DHT22;73393;51.946;20.140;2024-02-14T04:37:55;-0.10;94.50
83466;DHT22;73393;51.946;20.140;2024-02-14T04:40:22;0.00;94.40
83466;DHT22;73393;51.946;20.140;2024-02-14T04:42:47;0.00;93.60
83466;DHT22;73393;51.946;20.140;2024-02-14T04:45:13;0.00;93.40
83466;DHT22;73393;51.946;20.140;2024-02-14T04:47:39;-0.10;93.90
83466;DHT22;73393;51.946;20.140;2024-02-14T04:50:05;-0.20;94.10
83466;DHT22;73393;51.946;20.140;2024-02-14T04:52:30;-0.20;94.60
83466;DHT22;73393;51.946;20.140;2024-02-14T04:54:56;-0.20;95.20
83466;DHT22;73393;51.946;20.140;2024-02-14T04:57:22;-0.30;95.50
83466;DHT22;73393;51.946;20.140;2024-02-14T04:59:48;-0.20;95.80
83466;DHT22;73393;51.946;20.140;2024-02-14T05:02:14;-0.10;95.10
83466;DHT22;73393;51.946;20.140;2024-02-14T05:04:40;-0.10;93.90
83466;DHT22;73393;51.946;20.140;2024-02-14T05:07:05;-0.20;93.80
83466;DHT22;73393;51.946;20.140;2024-02-14T05:09:31;-0.20;94.30
83466;DHT22;73393;51.946;20.140;2024-02-14T05:11:57;-0.30;94.40
83466;DHT22;73393;51.946;20.140;2024-02-14T05:14:23;-0.40;94.80
83466;DHT22;73393;51.946;20.140;2024-02-14T05:16:49;-0.40;95.80
83466;DHT22;73393;51.946;20.140;2024-02-14T05:19:14;-0.40;96.70
83466;DHT22;73393;51.946;20.140;2024-02-14T05:21:40;-0.40;97.30
83466;DHT22;73393;51.946;20.140;2024-02-14T05:24:06;-0.30;97.80
83466;DHT22;73393;51.946;20.140;2024-02-14T05:26:32;-0.30;98.20
83466;DHT22;73393;51.946;20.140;2024-02-14T05:28:58;-0.30;98.80
83466;DHT22;73393;51.946;20.140;2024-02-14T05:31:24;-0.30;99.90
83466;DHT22;73393;51.946;20.140;2024-02-14T05:33:50;-0.20;100.00
83466;DHT22;73393;51.946;20.140;2024-02-14T05:36:16;-0.20;100.00
83466;DHT22;73393;51.946;20.140;2024-02-14T05:38:42;-0.20;100.00
83466;DHT22;73393;51.946;20.140;2024-02-14T05:41:07;-0.20;100.00
83466;DHT22;73393;51.946;20.140;2024-02-14T05:43:33;-0.20;100.00
83466;DHT22;73393;51.946;20.140;2024-02-14T05:46:00;-0.20;100.00
83466;DHT22;73393;51.946;20.140;2024-02-14T05:48:25;-0.20;100.00
83466;DHT22;73393;51.946;20.140;2024-02-14T05:50:51;-0.30;100.00
83466;DHT22;73393;51.946;20.140;2024-02-14T05:53:17;-0.30;99.70
83466;DHT22;73393;51.946;20.140;2024-02-14T05:55:42;-0.40;99.40
83466;DHT22;73393;51.946;20.140;2024-02-14T05:58:08;-0.40;99.10
83466;DHT22;73393;51.946;20.140;2024-02-14T06:00:33;-0.40;98.90
83466;DHT22;73393;51.946;20.140;2024-02-14T06:02:59;-0.40;98.40
83466;DHT22;73393;51.946;20.140;2024-02-14T06:05:24;-0.40;98.10
83466;DHT22;73393;51.946;20.140;2024-02-14T06:07:50;-0.30;98.20
83466;DHT22;73393;51.946;20.140;2024-02-14T06:10:17;-0.40;98.00
83466;DHT22;73393;51.946;20.140;2024-02-14T06:12:45;-0.40;98.10
83466;DHT22;73393;51.946;20.140;2024-02-14T06:15:13;-0.40;97.70
83466;DHT22;73393;51.946;20.140;2024-02-14T06:17:38;-0.40;97.80
83466;DHT22;73393;51.946;20.140;2024-02-14T06:20:04;-0.40;97.80
83466;DHT22;73393;51.946;20.140;2024-02-14T06:22:33;-0.40;98.20
83466;DHT22;73393;51.946;20.140;2024-02-14T06:24:59;-0.40;98.90
83466;DHT22;73393;51.946;20.140;2024-02-14T06:27:25;-0.30;99.40
83466;DHT22;73393;51.946;20.140;2024-02-14T06:29:50;-0.30;99.90
83466;DHT22;73393;51.946;20.140;2024-02-14T06:32:16;-0.20;100.00
83466;DHT22;73393;51.946;20.140;2024-02-14T06:34:41;-0.20;100.00
83466;DHT22;73393;51.946;20.140;2024-02-14T06:37:07;-0.10;100.00
83466;DHT22;73393;51.946;20.140;2024-02-14T06:39:33;0.00;100.00
83466;DHT22;73393;51.946;20.140;2024-02-14T06:41:58;0.00;100.00
83466;DHT22;73393;51.946;20.140;2024-02-14T06:44:24;0.00;100.00
83466;DHT22;73393;51.946;20.140;2024-02-14T06:46:50;0.10;100.00
83466;DHT22;73393;51.946;20.140;2024-02-14T06:49:18;0.20;100.00
83466;DHT22;73393;51.946;20.140;2024-02-14T06:51:44;0.30;100.00
83466;DHT22;73393;51.946;20.140;2024-02-14T06:54:10;0.40;100.00
83466;DHT22;73393;51.946;20.140;2024-02-14T06:56:37;0.50;100.00
83466;DHT22;73393;51.946;20.140;2024-02-14T06:59:03;0.60;100.00
83466;DHT22;73393;51.946;20.140;2024-02-14T07:01:30;0.70;100.00
83466;DHT22;73393;51.946;20.140;2024-02-14T07:03:56;0.80;100.00
83466;DHT22;73393;51.946;20.140;2024-02-14T07:06:22;0.90;100.00
83466;DHT22;73393;51.946;20.140;2024-02-14T07:08:48;1.10;100.00
83466;DHT22;73393;51.946;20.140;2024-02-14T07:11:14;1.20;100.00
83466;DHT22;73393;51.946;20.140;2024-02-14T07:13:41;1.30;100.00
83466;DHT22;73393;51.946;20.140;2024-02-14T07:16:06;1.40;100.00
83466;DHT22;73393;51.946;20.140;2024-02-14T07:18:33;1.60;100.00
83466;DHT22;73393;51.946;20.140;2024-02-14T07:20:59;1.80;100.00
83466;DHT22;73393;51.946;20.140;2024-02-14T07:23:25;1.90;100.00
83466;DHT22;73393;51.946;20.140;2024-02-14T07:25:51;2.00;100.00
83466;DHT22;73393;51.946;20.140;2024-02-14T07:28:17;2.10;100.00
83466;DHT22;73393;51.946;20.140;2024-02-14T07:30:43;2.30;99.30
83466;DHT22;73393;51.946;20.140;2024-02-14T07:33:09;2.30;98.10
83466;DHT22;73393;51.946;20.140;2024-02-14T07:35:36;2.40;97.60
83466;DHT22;73393;51.946;20.140;2024-02-14T07:38:01;2.50;97.20
83466;DHT22;73393;51.946;20.140;2024-02-14T07:40:27;2.70;96.20
83466;DHT22;73393;51.946;20.140;2024-02-14T07:42:58;2.70;95.30
83466;DHT22;73393;51.946;20.140;2024-02-14T07:45:24;2.90;94.70
83466;DHT22;73393;51.946;20.140;2024-02-14T07:47:50;3.00;94.10
83466;DHT22;73393;51.946;20.140;2024-02-14T07:50:16;3.10;93.10
83466;DHT22;73393;51.946;20.140;2024-02-14T07:52:43;3.20;92.00
83466;DHT22;73393;51.946;20.140;2024-02-14T07:55:12;3.30;91.40
83466;DHT22;73393;51.946;20.140;2024-02-14T07:57:38;3.40;90.50
83466;DHT22;73393;51.946;20.140;2024-02-14T08:00:07;3.60;89.80
83466;DHT22;73393;51.946;20.140;2024-02-14T08:02:34;3.60;88.90
83466;DHT22;73393;51.946;20.140;2024-02-14T08:05:00;3.70;88.20
83466;DHT22;73393;51.946;20.140;2024-02-14T08:07:26;3.80;88.00
83466;DHT22;73393;51.946;20.140;2024-02-14T08:09:51;3.90;88.10
83466;DHT22;73393;51.946;20.140;2024-02-14T08:12:17;3.90;87.20
83466;DHT22;73393;51.946;20.140;2024-02-14T08:14:43;4.00;86.90
83466;DHT22;73393;51.946;20.140;2024-02-14T08:17:08;4.10;86.40
83466;DHT22;73393;51.946;20.140;2024-02-14T08:19:34;4.20;85.90
83466;DHT22;73393;51.946;20.140;2024-02-14T08:22:00;4.30;85.20
83466;DHT22;73393;51.946;20.140;2024-02-14T08:24:27;4.40;84.90
83466;DHT22;73393;51.946;20.140;2024-02-14T08:26:53;4.50;85.00
83466;DHT22;73393;51.946;20.140;2024-02-14T08:29:19;4.50;85.20
83466;DHT22;73393;51.946;20.140;2024-02-14T08:31:44;4.70;84.20
83466;DHT22;73393;51.946;20.140;2024-02-14T08:34:10;4.80;83.50
83466;DHT22;73393;51.946;20.140;2024-02-14T08:36:36;4.80;83.70
83466;DHT22;73393;51.946;20.140;2024-02-14T08:39:09;4.90;82.90
83466;DHT22;73393;51.946;20.140;2024-02-14T08:41:38;5.00;82.80
83466;DHT22;73393;51.946;20.140;2024-02-14T08:44:08;5.10;82.30
83466;DHT22;73393;51.946;20.140;2024-02-14T08:46:34;5.20;81.60
83466;DHT22;73393;51.946;20.140;2024-02-14T08:49:00;5.30;81.40
83466;DHT22;73393;51.946;20.140;2024-02-14T08:51:28;5.40;81.70
83466;DHT22;73393;51.946;20.140;2024-02-14T08:53:53;5.40;81.20
83466;DHT22;73393;51.946;20.140;2024-02-14T08:56:22;5.40;80.30
83466;DHT22;73393;51.946;20.140;2024-02-14T08:58:48;5.50;80.40
83466;DHT22;73393;51.946;20.140;2024-02-14T09:01:14;5.60;80.40
83466;DHT22;73393;51.946;20.140;2024-02-14T09:03:41;5.60;79.50
83466;DHT22;73393;51.946;20.140;2024-02-14T09:06:08;5.80;79.10
83466;DHT22;73393;51.946;20.140;2024-02-14T09:08:36;5.80;79.30
83466;DHT22;73393;51.946;20.140;2024-02-14T09:11:01;5.90;79.60
83466;DHT22;73393;51.946;20.140;2024-02-14T09:13:27;6.00;78.60
83466;DHT22;73393;51.946;20.140;2024-02-14T09:15:53;6.10;79.00
83466;DHT22;73393;51.946;20.140;2024-02-14T09:18:19;6.20;77.60
83466;DHT22;73393;51.946;20.140;2024-02-14T09:20:45;6.20;76.80
83466;DHT22;73393;51.946;20.140;2024-02-14T09:23:12;6.30;76.70
83466;DHT22;73393;51.946;20.140;2024-02-14T09:25:39;6.40;76.40
83466;DHT22;73393;51.946;20.140;2024-02-14T09:28:05;6.40;76.90
83466;DHT22;73393;51.946;20.140;2024-02-14T09:30:32;6.50;76.00
83466;DHT22;73393;51.946;20.140;2024-02-14T09:32:58;6.70;76.30
83466;DHT22;73393;51.946;20.140;2024-02-14T09:35:24;6.70;75.80
83466;DHT22;73393;51.946;20.140;2024-02-14T09:37:50;6.80;75.70
83466;DHT22;73393;51.946;20.140;2024-02-14T09:40:16;6.90;76.30
83466;DHT22;73393;51.946;20.140;2024-02-14T09:42:44;7.00;75.20
83466;DHT22;73393;51.946;20.140;2024-02-14T09:45:14;7.10;74.00
83466;DHT22;73393;51.946;20.140;2024-02-14T09:47:40;7.20;73.20
83466;DHT22;73393;51.946;20.140;2024-02-14T09:50:08;7.30;73.00
83466;DHT22;73393;51.946;20.140;2024-02-14T09:52:36;7.30;71.30
83466;DHT22;73393;51.946;20.140;2024-02-14T09:55:04;7.40;72.10
83466;DHT22;73393;51.946;20.140;2024-02-14T09:57:31;7.50;71.20
83466;DHT22;73393;51.946;20.140;2024-02-14T09:59:59;7.50;70.50
83466;DHT22;73393;51.946;20.140;2024-02-14T10:02:25;7.50;72.00
83466;DHT22;73393;51.946;20.140;2024-02-14T10:04:51;7.60;69.70
83466;DHT22;73393;51.946;20.140;2024-02-14T10:07:16;7.60;69.60
83466;DHT22;73393;51.946;20.140;2024-02-14T10:09:42;7.80;69.80
83466;DHT22;73393;51.946;20.140;2024-02-14T10:12:09;7.80;70.10
83466;DHT22;73393;51.946;20.140;2024-02-14T10:14:36;7.90;69.30
83466;DHT22;73393;51.946;20.140;2024-02-14T10:17:03;7.80;68.60
83466;DHT22;73393;51.946;20.140;2024-02-14T10:19:29;8.00;67.90
83466;DHT22;73393;51.946;20.140;2024-02-14T10:21:58;8.00;68.30
83466;DHT22;73393;51.946;20.140;2024-02-14T10:24:26;8.00;68.00
83466;DHT22;73393;51.946;20.140;2024-02-14T10:26:52;8.00;66.80
83466;DHT22;73393;51.946;20.140;2024-02-14T10:29:19;8.00;68.30
83466;DHT22;73393;51.946;20.140;2024-02-14T10:31:46;8.10;67.10
83466;DHT22;73393;51.946;20.140;2024-02-14T10:34:11;8.10;66.20
83466;DHT22;73393;51.946;20.140;2024-02-14T10:36:37;8.20;66.30
83466;DHT22;73393;51.946;20.140;2024-02-14T10:39:05;8.20;64.60
83466;DHT22;73393;51.946;20.140;2024-02-14T10:41:33;8.30;65.50
83466;DHT22;73393;51.946;20.140;2024-02-14T10:44:04;8.40;65.60
83466;DHT22;73393;51.946;20.140;2024-02-14T10:46:37;8.50;65.20
83466;DHT22;73393;51.946;20.140;2024-02-14T10:49:05;8.50;64.80
83466;DHT22;73393;51.946;20.140;2024-02-14T10:51:35;8.60;65.60
83466;DHT22;73393;51.946;20.140;2024-02-14T10:54:05;8.70;63.90
83466;DHT22;73393;51.946;20.140;2024-02-14T10:56:32;8.70;64.40
83466;DHT22;73393;51.946;20.140;2024-02-14T10:58:58;8.60;63.30
83466;DHT22;73393;51.946;20.140;2024-02-14T11:01:28;8.70;63.00
83466;DHT22;73393;51.946;20.140;2024-02-14T11:04:01;8.70;63.60
83466;DHT22;73393;51.946;20.140;2024-02-14T11:06:27;8.50;60.90
83466;DHT22;73393;51.946;20.140;2024-02-14T11:09:03;8.40;63.00
83466;DHT22;73393;51.946;20.140;2024-02-14T11:11:33;8.40;62.80
83466;DHT22;73393;51.946;20.140;2024-02-14T11:13:59;8.50;62.40
83466;DHT22;73393;51.946;20.140;2024-02-14T11:16:26;8.60;62.00
83466;DHT22;73393;51.946;20.140;2024-02-14T11:19:06;8.50;61.20
83466;DHT22;73393;51.946;20.140;2024-02-14T11:21:56;8.70;63.60
83466;DHT22;73393;51.946;20.140;2024-02-14T11:24:28;8.70;62.20
83466;DHT22;73393;51.946;20.140;2024-02-14T11:26:55;8.60;60.40
83466;DHT22;73393;51.946;20.140;2024-02-14T11:29:28;8.50;61.60
83466;DHT22;73393;51.946;20.140;2024-02-14T11:32:00;8.50;61.80
83466;DHT22;73393;51.946;20.140;2024-02-14T11:34:28;8.60;62.20
83466;DHT22;73393;51.946;20.140;2024-02-14T11:36:53;8.60;60.90
83466;DHT22;73393;51.946;20.140;2024-02-14T11:39:20;8.70;60.30
83466;DHT22;73393;51.946;20.140;2024-02-14T11:41:47;8.80;61.40
83466;DHT22;73393;51.946;20.140;2024-02-14T11:44:13;8.90;60.30
83466;DHT22;73393;51.946;20.140;2024-02-14T11:46:38;8.90;59.80
83466;DHT22;73393;51.946;20.140;2024-02-14T11:49:05;8.90;59.30
83466;DHT22;73393;51.946;20.140;2024-02-14T11:51:33;8.80;58.90
83466;DHT22;73393;51.946;20.140;2024-02-14T11:53:59;8.80;58.90
83466;DHT22;73393;51.946;20.140;2024-02-14T11:56:34;8.70;58.80
83466;DHT22;73393;51.946;20.140;2024-02-14T11:59:03;8.70;59.70
83466;DHT22;73393;51.946;20.140;2024-02-14T12:01:39;8.70;59.40
83466;DHT22;73393;51.946;20.140;2024-02-14T12:04:05;8.70;60.50
83466;DHT22;73393;51.946;20.140;2024-02-14T12:06:35;8.80;61.20
83466;DHT22;73393;51.946;20.140;2024-02-14T12:09:04;8.90;59.80
83466;DHT22;73393;51.946;20.140;2024-02-14T12:11:39;9.00;59.70
83466;DHT22;73393;51.946;20.140;2024-02-14T12:14:08;9.00;58.10
83466;DHT22;73393;51.946;20.140;2024-02-14T12:16:35;8.90;57.90
83466;DHT22;73393;51.946;20.140;2024-02-14T12:19:17;8.90;58.50
83466;DHT22;73393;51.946;20.140;2024-02-14T12:21:44;8.80;58.40
83466;DHT22;73393;51.946;20.140;2024-02-14T12:24:10;8.80;57.80
83466;DHT22;73393;51.946;20.140;2024-02-14T12:26:38;8.80;58.30
83466;DHT22;73393;51.946;20.140;2024-02-14T12:29:04;8.90;59.30
83466;DHT22;73393;51.946;20.140;2024-02-14T12:31:30;8.80;58.50
83466;DHT22;73393;51.946;20.140;2024-02-14T12:34:00;8.90;59.00
83466;DHT22;73393;51.946;20.140;2024-02-14T12:36:28;8.90;59.60
83466;DHT22;73393;51.946;20.140;2024-02-14T12:38:54;8.90;59.20
83466;DHT22;73393;51.946;20.140;2024-02-14T12:41:20;9.00;59.30
83466;DHT22;73393;51.946;20.140;2024-02-14T12:43:48;9.00;59.80
83466;DHT22;73393;51.946;20.140;2024-02-14T12:46:14;9.00;57.70
83466;DHT22;73393;51.946;20.140;2024-02-14T12:48:39;9.00;58.50
83466;DHT22;73393;51.946;20.140;2024-02-14T12:51:05;9.10;59.10
83466;DHT22;73393;51.946;20.140;2024-02-14T12:53:31;9.10;58.00
83466;DHT22;73393;51.946;20.140;2024-02-14T12:55:56;9.10;57.50
83466;DHT22;73393;51.946;20.140;2024-02-14T12:58:22;9.20;58.50
83466;DHT22;73393;51.946;20.140;2024-02-14T13:00:48;9.20;57.30
83466;DHT22;73393;51.946;20.140;2024-02-14T13:03:13;9.20;57.20
83466;DHT22;73393;51.946;20.140;2024-02-14T13:05:39;9.10;57.40
83466;DHT22;73393;51.946;20.140;2024-02-14T13:08:06;9.20;58.10
83466;DHT22;73393;51.946;20.140;2024-02-14T13:10:31;9.20;57.60
83466;DHT22;73393;51.946;20.140;2024-02-14T13:12:57;9.30;57.90
83466;DHT22;73393;51.946;20.140;2024-02-14T13:15:23;9.30;58.60
83466;DHT22;73393;51.946;20.140;2024-02-14T13:17:48;9.20;56.10
83466;DHT22;73393;51.946;20.140;2024-02-14T13:20:14;9.20;56.90
83466;DHT22;73393;51.946;20.140;2024-02-14T13:22:41;9.20;56.20
83466;DHT22;73393;51.946;20.140;2024-02-14T13:25:10;9.10;56.00
83466;DHT22;73393;51.946;20.140;2024-02-14T13:27:35;9.10;56.90
83466;DHT22;73393;51.946;20.140;2024-02-14T13:30:04;9.10;56.70
83466;DHT22;73393;51.946;20.140;2024-02-14T13:32:30;9.00;56.20
83466;DHT22;73393;51.946;20.140;2024-02-14T13:35:01;9.00;56.80
83466;DHT22;73393;51.946;20.140;2024-02-14T13:37:27;9.00;57.30
83466;DHT22;73393;51.946;20.140;2024-02-14T13:39:52;8.90;57.60
83466;DHT22;73393;51.946;20.140;2024-02-14T13:42:18;8.90;57.70
83466;DHT22;73393;51.946;20.140;2024-02-14T13:44:44;8.90;57.20
83466;DHT22;73393;51.946;20.140;2024-02-14T13:47:10;9.00;58.00
83466;DHT22;73393;51.946;20.140;2024-02-14T13:49:35;9.00;58.00
83466;DHT22;73393;51.946;20.140;2024-02-14T13:52:01;9.00;57.30
83466;DHT22;73393;51.946;20.140;2024-02-14T13:54:26;9.10;57.80
83466;DHT22;73393;51.946;20.140;2024-02-14T13:56:52;9.10;57.50
83466;DHT22;73393;51.946;20.140;2024-02-14T13:59:18;9.20;57.00
83466;DHT22;73393;51.946;20.140;2024-02-14T14:01:45;9.10;55.80
83466;DHT22;73393;51.946;20.140;2024-02-14T14:04:11;9.20;56.40
83466;DHT22;73393;51.946;20.140;2024-02-14T14:06:38;9.20;55.90
83466;DHT22;73393;51.946;20.140;2024-02-14T14:09:04;9.10;56.00
83466;DHT22;73393;51.946;20.140;2024-02-14T14:11:33;9.10;55.80
83466;DHT22;73393;51.946;20.140;2024-02-14T14:13:58;9.10;55.40
83466;DHT22;73393;51.946;20.140;2024-02-14T14:16:25;9.00;55.60
83466;DHT22;73393;51.946;20.140;2024-02-14T14:18:51;9.00;54.80
83466;DHT22;73393;51.946;20.140;2024-02-14T14:21:17;9.00;55.60
83466;DHT22;73393;51.946;20.140;2024-02-14T14:23:43;8.90;55.80
83466;DHT22;73393;51.946;20.140;2024-02-14T14:26:09;8.90;55.80
83466;DHT22;73393;51.946;20.140;2024-02-14T14:28:35;8.80;56.30
83466;DHT22;73393;51.946;20.140;2024-02-14T14:31:00;8.70;56.20
83466;DHT22;73393;51.946;20.140;2024-02-14T14:33:28;8.70;56.20
83466;DHT22;73393;51.946;20.140;2024-02-14T14:35:53;8.70;56.30
83466;DHT22;73393;51.946;20.140;2024-02-14T14:38:20;8.70;56.10
83466;DHT22;73393;51.946;20.140;2024-02-14T14:40:47;8.70;57.10
83466;DHT22;73393;51.946;20.140;2024-02-14T14:43:15;8.70;56.80
83466;DHT22;73393;51.946;20.140;2024-02-14T14:45:44;8.70;57.10
83466;DHT22;73393;51.946;20.140;2024-02-14T14:48:10;8.70;56.80
83466;DHT22;73393;51.946;20.140;2024-02-14T14:50:36;8.70;57.50
83466;DHT22;73393;51.946;20.140;2024-02-14T14:53:02;8.70;57.60
83466;DHT22;73393;51.946;20.140;2024-02-14T14:58:16;8.70;57.20
83466;DHT22;73393;51.946;20.140;2024-02-14T15:00:42;8.60;57.10
83466;DHT22;73393;51.946;20.140;2024-02-14T15:03:10;8.50;57.30
83466;DHT22;73393;51.946;20.140;2024-02-14T15:05:37;8.50;58.10
83466;DHT22;73393;51.946;20.140;2024-02-14T15:08:04;8.50;57.90
83466;DHT22;73393;51.946;20.140;2024-02-14T15:10:30;8.40;57.60
83466;DHT22;73393;51.946;20.140;2024-02-14T15:12:55;8.30;58.20
83466;DHT22;73393;51.946;20.140;2024-02-14T15:15:21;8.30;58.50
83466;DHT22;73393;51.946;20.140;2024-02-14T15:17:46;8.20;58.60
83466;DHT22;73393;51.946;20.140;2024-02-14T15:20:12;8.10;58.50
83466;DHT22;73393;51.946;20.140;2024-02-14T15:22:38;8.10;58.70
83466;DHT22;73393;51.946;20.140;2024-02-14T15:25:04;8.10;59.20
83466;DHT22;73393;51.946;20.140;2024-02-14T15:27:29;8.00;59.40